createdAt,value
2016-12-03T00:00:44.828Z,0
2016-12-03T00:01:44.855Z,0
2016-12-03T00:02:44.909Z,0
2016-12-03T00:03:47.913Z,0
2016-12-03T00:04:44.954Z,0
2016-12-03T00:05:44.963Z,0
2016-12-03T00:06:45.029Z,0
2016-12-03T00:07:45.321Z,0
2016-12-03T00:08:45.025Z,0
2016-12-03T00:09:45.119Z,0
2016-12-03T00:10:45.079Z,0
2016-12-03T00:11:44.872Z,0
2016-12-03T00:12:45.482Z,0
2016-12-03T00:13:45.188Z,0
2016-12-03T00:14:45.201Z,0
2016-12-03T00:15:45.387Z,0
2016-12-03T00:16:45.404Z,0
2016-12-03T00:17:44.915Z,0
2016-12-03T00:18:45.010Z,0
2016-12-03T00:19:45.252Z,0
2016-12-03T00:20:44.997Z,0
2016-12-03T00:21:44.938Z,0
2016-12-03T00:22:44.791Z,0
2016-12-03T00:23:45.230Z,0
2016-12-03T00:24:45.007Z,0
2016-12-03T00:25:44.810Z,0
2016-12-03T00:26:44.872Z,0
2016-12-03T00:27:44.620Z,0
2016-12-03T00:28:45.644Z,0
2016-12-03T00:29:44.660Z,0
2016-12-03T00:30:44.819Z,0
2016-12-03T00:31:44.801Z,0
2016-12-03T00:32:44.820Z,0
2016-12-03T00:33:44.844Z,0
2016-12-03T00:34:44.786Z,0
2016-12-03T00:35:44.720Z,0
2016-12-03T00:36:45.034Z,0
2016-12-03T00:37:45.645Z,0
2016-12-03T00:38:44.964Z,0
2016-12-03T00:39:45.122Z,0
2016-12-03T00:45:02.803Z,0
2016-12-03T00:45:14.365Z,0
2016-12-03T00:46:14.302Z,0
2016-12-03T00:47:14.193Z,0
2016-12-03T00:48:14.299Z,0
2016-12-03T00:49:14.477Z,0
2016-12-03T00:50:14.278Z,0
2016-12-03T00:51:14.343Z,0
2016-12-03T00:52:14.365Z,0
2016-12-03T00:53:14.375Z,0
2016-12-03T00:54:14.253Z,0
2016-12-03T00:55:14.430Z,0
2016-12-03T00:56:14.131Z,0
2016-12-03T00:57:14.244Z,0
2016-12-03T00:58:14.291Z,0
2016-12-03T00:59:14.251Z,0
2016-12-03T01:00:14.358Z,0
2016-12-03T01:01:14.305Z,0
2016-12-03T01:02:14.832Z,0
2016-12-03T01:03:14.234Z,0
2016-12-03T01:04:14.737Z,0
2016-12-03T01:05:14.462Z,0
2016-12-03T01:06:14.390Z,0
2016-12-03T01:07:14.331Z,0
2016-12-03T01:08:14.300Z,0
2016-12-03T01:09:14.339Z,0
2016-12-03T01:10:14.222Z,0
2016-12-03T01:11:14.228Z,0
2016-12-03T01:12:14.243Z,0
2016-12-03T01:13:14.372Z,0
2016-12-03T01:14:14.343Z,0
2016-12-03T01:15:14.328Z,0
2016-12-03T01:16:14.260Z,0
2016-12-03T01:17:14.383Z,0
2016-12-03T01:18:14.271Z,0
2016-12-03T01:19:14.254Z,0
2016-12-03T01:20:14.321Z,0
2016-12-03T01:21:14.300Z,0
2016-12-03T01:22:14.417Z,0
2016-12-03T01:23:14.460Z,0
2016-12-03T01:24:14.316Z,0
2016-12-03T01:25:14.299Z,0
2016-12-03T01:26:14.334Z,0
2016-12-03T01:27:14.261Z,0
2016-12-03T01:28:14.361Z,0
2016-12-03T01:29:14.338Z,0
2016-12-03T01:30:15.138Z,0
2016-12-03T01:31:15.441Z,0
2016-12-03T01:32:14.946Z,0
2016-12-03T01:33:15.322Z,0
2016-12-03T01:34:15.032Z,0
2016-12-03T01:35:15.352Z,0
2016-12-03T01:36:14.906Z,0
2016-12-03T01:37:15.313Z,0
2016-12-03T01:38:14.847Z,0
2016-12-03T01:39:15.439Z,0
2016-12-03T01:40:14.867Z,0
2016-12-03T01:41:14.301Z,0
2016-12-03T01:42:14.282Z,0
2016-12-03T01:43:14.267Z,0
2016-12-03T01:44:14.201Z,0
2016-12-03T01:45:14.372Z,0
2016-12-03T01:46:15.114Z,0
2016-12-03T01:47:14.351Z,0
2016-12-03T01:48:14.253Z,0
2016-12-03T01:49:14.341Z,0
2016-12-03T01:50:14.401Z,0
2016-12-03T01:51:14.321Z,0
2016-12-03T01:52:14.196Z,0
2016-12-03T01:53:14.410Z,0
2016-12-03T01:54:14.450Z,0
2016-12-03T01:55:14.511Z,0
2016-12-03T01:56:14.269Z,0
2016-12-03T01:57:14.524Z,0
2016-12-03T01:58:14.276Z,0
2016-12-03T01:59:14.421Z,0
2016-12-03T02:00:14.306Z,0
2016-12-03T02:01:14.393Z,0
2016-12-03T02:02:14.416Z,0
2016-12-03T02:03:14.420Z,0
2016-12-03T02:04:14.295Z,0
2016-12-03T02:05:14.382Z,0
2016-12-03T02:06:14.245Z,0
2016-12-03T02:07:14.522Z,0
2016-12-03T02:08:14.250Z,0
2016-12-03T02:09:14.285Z,0
2016-12-03T02:10:14.374Z,0
2016-12-03T02:11:14.333Z,0
2016-12-03T02:12:14.459Z,0
2016-12-03T02:13:14.312Z,0
2016-12-03T02:14:14.294Z,0
2016-12-03T02:15:14.411Z,0
2016-12-03T02:16:14.322Z,0
2016-12-03T02:17:14.337Z,0
2016-12-03T02:18:14.378Z,0
2016-12-03T02:19:14.368Z,0
2016-12-03T02:20:14.391Z,0
2016-12-03T02:21:14.260Z,0
2016-12-03T02:22:14.362Z,0
2016-12-03T02:23:14.294Z,0
2016-12-03T02:24:14.401Z,0
2016-12-03T02:25:14.454Z,0
2016-12-03T02:26:14.426Z,0
2016-12-03T02:27:24.236Z,0
2016-12-03T02:28:14.273Z,0
2016-12-03T02:29:14.553Z,0
2016-12-03T02:30:14.329Z,0
2016-12-03T02:31:14.476Z,0
2016-12-03T02:32:14.201Z,0
2016-12-03T02:37:30.333Z,0
2016-12-03T02:37:41.873Z,0
2016-12-03T02:38:41.727Z,0
2016-12-03T02:39:42.538Z,0
2016-12-03T02:40:41.623Z,0
2016-12-03T02:41:41.820Z,0
2016-12-03T02:42:41.882Z,0
2016-12-03T02:43:41.803Z,0
2016-12-03T02:44:41.862Z,0
2016-12-03T02:45:41.757Z,0
2016-12-03T02:46:42.477Z,0
2016-12-03T02:47:42.802Z,0
2016-12-03T02:48:41.869Z,0
2016-12-03T02:49:41.908Z,0
2016-12-03T02:50:41.784Z,0
2016-12-03T02:51:42.971Z,0
2016-12-03T02:52:41.791Z,0
2016-12-03T02:53:41.781Z,0
2016-12-03T02:54:41.766Z,0
2016-12-03T02:55:42.177Z,0
2016-12-03T02:56:41.703Z,0
2016-12-03T02:57:41.860Z,0
2016-12-03T02:58:41.763Z,0
2016-12-03T02:59:42.071Z,0
2016-12-03T03:00:42.051Z,0
2016-12-03T03:01:41.909Z,0
2016-12-03T03:02:41.961Z,0
2016-12-03T03:03:41.864Z,0
2016-12-03T03:04:41.973Z,0
2016-12-03T03:05:42.008Z,0
2016-12-03T03:06:42.097Z,0
2016-12-03T03:07:41.791Z,0
2016-12-03T03:08:41.728Z,0
2016-12-03T03:09:41.811Z,0
2016-12-03T03:10:41.916Z,0
2016-12-03T03:11:41.750Z,0
2016-12-03T03:12:41.857Z,0
2016-12-03T03:13:41.870Z,0
2016-12-03T03:14:41.818Z,0
2016-12-03T03:15:41.879Z,0
2016-12-03T03:16:41.747Z,0
2016-12-03T03:17:41.799Z,0
2016-12-03T03:18:41.931Z,0
2016-12-03T03:19:41.874Z,0
2016-12-03T03:20:41.745Z,0
2016-12-03T03:21:41.754Z,0
2016-12-03T03:22:41.793Z,0
2016-12-03T03:23:42.119Z,0
2016-12-03T03:24:41.868Z,0
2016-12-03T03:25:41.827Z,0
2016-12-03T03:26:41.832Z,0
2016-12-03T03:27:42.211Z,0
2016-12-03T03:28:42.029Z,0
2016-12-03T03:29:41.832Z,0
2016-12-03T03:30:41.865Z,0
2016-12-03T03:31:41.911Z,0
2016-12-03T03:32:41.836Z,0
2016-12-03T03:33:41.880Z,0
2016-12-03T03:34:41.801Z,0
2016-12-03T03:35:41.893Z,0
2016-12-03T03:36:41.808Z,0
2016-12-03T03:42:00.244Z,0
2016-12-03T03:42:15.546Z,0
2016-12-03T03:43:11.692Z,0
2016-12-03T03:44:11.549Z,0
2016-12-03T03:45:11.791Z,0
2016-12-03T03:46:11.788Z,0
2016-12-03T03:47:11.511Z,0
2016-12-03T03:48:11.751Z,0
2016-12-03T03:49:11.686Z,0
2016-12-03T03:50:11.531Z,0
2016-12-03T03:51:11.529Z,0
2016-12-03T03:52:11.596Z,0
2016-12-03T03:53:11.780Z,0
2016-12-03T03:54:11.721Z,0
2016-12-03T03:55:11.610Z,0
2016-12-03T03:56:11.644Z,0
2016-12-03T03:57:11.795Z,0
2016-12-03T03:58:11.647Z,0
2016-12-03T03:59:11.710Z,0
2016-12-03T04:00:11.507Z,0
2016-12-03T04:01:11.637Z,0
2016-12-03T04:02:11.649Z,0
2016-12-03T04:03:11.737Z,0
2016-12-03T04:04:11.597Z,0
2016-12-03T04:05:11.768Z,0
2016-12-03T04:06:11.559Z,0
2016-12-03T04:07:11.510Z,0
2016-12-03T04:08:11.592Z,0
2016-12-03T04:09:11.561Z,0
2016-12-03T04:10:11.607Z,0
2016-12-03T04:11:11.745Z,0
2016-12-03T04:12:11.583Z,0
2016-12-03T04:13:11.679Z,0
2016-12-03T04:14:11.662Z,0
2016-12-03T04:15:11.823Z,0
2016-12-03T04:16:11.611Z,0
2016-12-03T04:17:11.646Z,0
2016-12-03T04:18:11.593Z,0
2016-12-03T04:19:11.759Z,0
2016-12-03T04:20:11.649Z,0
2016-12-03T04:21:11.725Z,0
2016-12-03T04:22:11.591Z,0
2016-12-03T04:23:11.894Z,0
2016-12-03T04:24:11.928Z,0
2016-12-03T04:25:12.266Z,0
2016-12-03T04:26:11.958Z,0
2016-12-03T04:27:11.660Z,0
2016-12-03T04:28:11.770Z,0
2016-12-03T04:29:11.692Z,0
2016-12-03T04:30:11.836Z,0
2016-12-03T04:31:11.826Z,0
2016-12-03T04:32:11.586Z,0
2016-12-03T04:33:11.857Z,0
2016-12-03T04:34:11.800Z,0
2016-12-03T04:35:11.706Z,0
2016-12-03T04:36:11.697Z,0
2016-12-03T04:37:11.740Z,0
2016-12-03T04:38:11.750Z,0
2016-12-03T04:39:11.707Z,0
2016-12-03T04:40:11.636Z,0
2016-12-03T04:41:11.817Z,0
2016-12-03T04:42:11.708Z,0
2016-12-03T04:43:11.778Z,0
2016-12-03T04:44:11.756Z,0
2016-12-03T04:45:11.674Z,0
2016-12-03T04:46:11.869Z,0
2016-12-03T04:47:11.766Z,0
2016-12-03T04:48:14.438Z,0
2016-12-03T04:49:11.828Z,0
2016-12-03T04:50:11.742Z,0
2016-12-03T04:51:11.659Z,0
2016-12-03T04:52:11.639Z,0
2016-12-03T04:53:11.925Z,0
2016-12-03T04:54:11.637Z,0
2016-12-03T04:55:11.734Z,0
2016-12-03T04:56:12.341Z,0
2016-12-03T04:57:11.769Z,0
2016-12-03T04:58:11.636Z,0
2016-12-03T04:59:11.807Z,0
2016-12-03T05:00:11.604Z,0
2016-12-03T05:01:11.571Z,0
2016-12-03T05:02:11.744Z,0
2016-12-03T05:03:11.847Z,0
2016-12-03T05:04:11.525Z,0
2016-12-03T05:05:11.624Z,0
2016-12-03T05:06:11.675Z,0
2016-12-03T05:07:11.685Z,0
2016-12-03T05:08:11.586Z,0
2016-12-03T05:09:11.674Z,0
2016-12-03T05:10:12.251Z,0
2016-12-03T05:11:11.829Z,0
2016-12-03T05:12:12.326Z,0
2016-12-03T05:13:11.784Z,0
2016-12-03T05:14:11.885Z,0
2016-12-03T05:15:11.692Z,0
2016-12-03T05:16:13.491Z,0
2016-12-03T05:17:12.059Z,0
2016-12-03T05:18:11.799Z,0
2016-12-03T05:19:11.699Z,0
2016-12-03T05:20:11.619Z,0
2016-12-03T05:21:11.813Z,0
2016-12-03T05:22:11.713Z,0
2016-12-03T05:23:11.844Z,0
2016-12-03T05:24:11.813Z,0
2016-12-03T05:25:11.707Z,0
2016-12-03T05:26:11.655Z,0
2016-12-03T05:27:11.711Z,0
2016-12-03T05:28:11.970Z,0
2016-12-03T05:29:11.803Z,0
2016-12-03T05:30:11.883Z,0
2016-12-03T05:31:11.904Z,0
2016-12-03T05:32:11.645Z,0
2016-12-03T05:33:11.830Z,0
2016-12-03T05:34:11.690Z,0
2016-12-03T05:35:11.734Z,0
2016-12-03T05:36:11.942Z,0
2016-12-03T05:37:11.789Z,0
2016-12-03T05:38:11.877Z,0
2016-12-03T05:39:11.690Z,0
2016-12-03T05:40:13.187Z,0
2016-12-03T05:41:11.646Z,0
2016-12-03T05:42:11.726Z,0
2016-12-03T05:43:12.045Z,0
2016-12-03T05:44:11.950Z,0
2016-12-03T05:45:11.753Z,0
2016-12-03T05:46:12.285Z,0
2016-12-03T05:47:11.897Z,0
2016-12-03T05:48:11.679Z,0
2016-12-03T05:49:11.690Z,0
2016-12-03T05:50:11.650Z,0
2016-12-03T05:51:11.809Z,0
2016-12-03T05:52:11.624Z,0
2016-12-03T05:53:14.048Z,0
2016-12-03T05:54:11.952Z,0
2016-12-03T05:55:12.127Z,0
2016-12-03T05:56:12.209Z,0
2016-12-03T05:57:12.028Z,0
2016-12-03T05:58:12.223Z,0
2016-12-03T05:59:12.895Z,0
2016-12-03T06:00:13.150Z,0
2016-12-03T06:01:11.954Z,0
2016-12-03T06:02:11.814Z,0
2016-12-03T06:03:12.148Z,0
2016-12-03T06:04:11.815Z,0
2016-12-03T06:05:11.886Z,0
2016-12-03T06:06:12.127Z,0
2016-12-03T06:07:11.858Z,0
2016-12-03T06:08:12.075Z,0
2016-12-03T06:09:11.881Z,0
2016-12-03T06:10:11.906Z,0
2016-12-03T06:11:12.161Z,0
2016-12-03T06:12:11.977Z,0
2016-12-03T06:13:12.079Z,0
2016-12-03T06:14:11.893Z,0
2016-12-03T06:15:11.816Z,0
2016-12-03T06:16:11.925Z,0
2016-12-03T06:17:11.770Z,0
2016-12-03T06:18:11.815Z,0
2016-12-03T06:19:11.970Z,0
2016-12-03T06:20:11.915Z,0
2016-12-03T06:21:11.835Z,0
2016-12-03T06:22:11.999Z,0
2016-12-03T06:23:11.946Z,0
2016-12-03T06:24:11.930Z,0
2016-12-03T06:25:11.949Z,0
2016-12-03T06:26:11.806Z,0
2016-12-03T06:27:11.878Z,0
2016-12-03T06:28:11.924Z,0
2016-12-03T06:29:12.011Z,0
2016-12-03T06:30:11.885Z,0
2016-12-03T06:31:11.847Z,0
2016-12-03T06:32:11.983Z,0
2016-12-03T06:33:12.072Z,0
2016-12-03T06:34:12.120Z,0
2016-12-03T06:35:12.088Z,0
2016-12-03T06:36:12.071Z,0
2016-12-03T06:37:12.184Z,0
2016-12-03T06:38:12.159Z,0
2016-12-03T06:39:11.921Z,0
2016-12-03T06:40:12.836Z,0
2016-12-03T06:41:12.184Z,0
2016-12-03T06:42:11.994Z,0
2016-12-03T06:43:11.935Z,0
2016-12-03T06:44:11.969Z,0
2016-12-03T06:45:11.888Z,0
2016-12-03T06:46:11.883Z,0
2016-12-03T06:47:12.347Z,0
2016-12-03T06:48:11.878Z,0
2016-12-03T06:49:11.962Z,0
2016-12-03T06:50:11.885Z,0
2016-12-03T06:51:11.886Z,0
2016-12-03T06:52:12.039Z,0
2016-12-03T06:53:11.907Z,0
2016-12-03T06:54:11.990Z,0
2016-12-03T06:55:12.176Z,0
2016-12-03T06:56:12.068Z,0
2016-12-03T06:57:12.137Z,0
2016-12-03T06:58:12.092Z,0
2016-12-03T06:59:11.886Z,0
2016-12-03T07:00:12.154Z,0
2016-12-03T07:01:12.145Z,0
2016-12-03T07:02:12.138Z,0
2016-12-03T07:03:11.946Z,0
2016-12-03T07:04:12.117Z,0
2016-12-03T07:05:11.907Z,0
2016-12-03T07:06:12.308Z,0
2016-12-03T07:07:13.630Z,0
2016-12-03T07:08:13.434Z,0
2016-12-03T07:09:13.992Z,5
2016-12-03T07:10:12.456Z,5
2016-12-03T07:11:12.151Z,5
2016-12-03T07:12:12.666Z,5
2016-12-03T07:13:12.855Z,5
2016-12-03T07:14:13.048Z,5
2016-12-03T07:15:12.877Z,5
2016-12-03T07:16:13.075Z,5
2016-12-03T07:17:12.747Z,10
2016-12-03T07:18:13.313Z,10
2016-12-03T07:19:12.678Z,10
2016-12-03T07:20:12.906Z,10
2016-12-03T07:21:12.858Z,10
2016-12-03T07:22:13.052Z,10
2016-12-03T07:23:13.639Z,15
2016-12-03T07:24:12.870Z,15
2016-12-03T07:25:13.674Z,15
2016-12-03T07:26:13.318Z,15
2016-12-03T07:27:12.855Z,20
2016-12-03T07:28:12.805Z,20
2016-12-03T07:29:12.600Z,20
2016-12-03T07:30:12.804Z,20
2016-12-03T07:31:12.461Z,25
2016-12-03T07:32:12.756Z,25
2016-12-03T07:33:13.443Z,25
2016-12-03T07:34:14.489Z,25
2016-12-03T07:35:13.140Z,30
2016-12-03T07:36:13.303Z,30
2016-12-03T07:37:13.362Z,30
2016-12-03T07:38:13.366Z,35
2016-12-03T07:39:12.886Z,35
2016-12-03T07:40:12.360Z,35
2016-12-03T07:41:12.770Z,35
2016-12-03T07:42:12.889Z,40
2016-12-03T07:43:12.987Z,40
2016-12-03T07:44:12.405Z,45
2016-12-03T07:45:13.158Z,45
2016-12-03T07:46:13.370Z,45
2016-12-03T07:47:12.856Z,50
2016-12-03T07:48:13.735Z,50
2016-12-03T07:49:12.729Z,50
2016-12-03T07:50:13.043Z,55
2016-12-03T07:51:21.020Z,55
2016-12-03T07:52:18.539Z,55
2016-12-03T07:54:02.136Z,60
2016-12-03T07:55:13.391Z,60
2016-12-03T07:55:51.677Z,60
2016-12-03T07:56:46.652Z,65
2016-12-03T07:57:34.161Z,65
2016-12-03T07:58:38.856Z,65
2016-12-03T07:59:51.490Z,65
2016-12-03T08:00:59.502Z,70
2016-12-03T08:01:33.010Z,70
2016-12-03T08:02:48.888Z,75
2016-12-03T08:04:09.692Z,75
2016-12-03T08:04:49.925Z,80
2016-12-03T08:06:00.442Z,80
2016-12-03T08:07:06.435Z,90
2016-12-03T08:07:45.491Z,85
2016-12-03T08:09:06.883Z,95
2016-12-03T08:10:28.412Z,95
2016-12-03T08:11:32.621Z,100
2016-12-03T08:12:33.348Z,100
2016-12-03T08:13:48.594Z,100
2016-12-03T08:15:12.023Z,105
2016-12-03T08:16:19.503Z,105
2016-12-03T08:17:42.755Z,105
2016-12-03T08:19:31.689Z,105
2016-12-03T08:21:08.060Z,110
2016-12-03T08:22:21.397Z,115
2016-12-03T08:23:21.612Z,115
2016-12-03T08:24:33.639Z,120
2016-12-03T08:25:51.830Z,120
2016-12-03T08:26:54.525Z,125
2016-12-03T08:28:17.011Z,130
2016-12-03T08:29:39.993Z,135
2016-12-03T08:31:04.345Z,150
2016-12-03T08:32:24.394Z,145
2016-12-03T08:34:03.505Z,155
2016-12-03T08:36:00.607Z,150
2016-12-03T08:37:56.825Z,155
2016-12-03T08:39:09.191Z,160
2016-12-03T08:40:23.589Z,165
2016-12-03T08:42:12.610Z,180
2016-12-03T08:43:53.799Z,180
2016-12-03T08:45:43.653Z,185
2016-12-03T08:47:32.551Z,185
2016-12-03T08:49:19.596Z,190
2016-12-03T08:51:00.510Z,195
2016-12-03T08:52:39.338Z,190
2016-12-03T08:54:16.000Z,210
2016-12-03T08:55:57.302Z,220
2016-12-03T08:57:39.153Z,235
2016-12-03T08:59:21.504Z,230
2016-12-03T09:01:08.211Z,220
2016-12-03T09:03:25.003Z,220
2016-12-03T09:04:56.055Z,235
2016-12-03T09:06:24.897Z,235
2016-12-03T09:07:34.407Z,265
2016-12-03T09:09:07.945Z,250
2016-12-03T09:10:56.645Z,250
2016-12-03T09:12:32.860Z,265
2016-12-03T09:14:08.296Z,310
2016-12-03T09:15:38.937Z,300
2016-12-03T09:17:03.536Z,310
2016-12-03T09:18:34.662Z,290
2016-12-03T09:20:08.795Z,285
2016-12-03T09:21:43.451Z,305
2016-12-03T09:23:03.300Z,330
2016-12-03T09:24:30.172Z,300
2016-12-03T09:26:12.480Z,365
2016-12-03T09:27:22.616Z,370
2016-12-03T09:28:37.061Z,385
2016-12-03T09:29:51.711Z,365
2016-12-03T09:30:59.363Z,400
2016-12-03T09:31:37.337Z,355
2016-12-03T09:32:29.920Z,345
2016-12-03T09:33:19.151Z,390
2016-12-03T09:34:18.465Z,370
2016-12-03T09:35:21.391Z,385
2016-12-03T09:36:22.882Z,310
2016-12-03T09:37:17.504Z,310
2016-12-03T09:38:17.783Z,345
2016-12-03T09:39:17.350Z,355
2016-12-03T09:40:17.299Z,380
2016-12-03T09:41:19.240Z,355
2016-12-03T09:42:21.779Z,405
2016-12-03T09:43:19.869Z,355
2016-12-03T09:44:18.363Z,380
2016-12-03T09:45:22.927Z,390
2016-12-03T09:46:18.872Z,355
2016-12-03T09:47:17.802Z,370
2016-12-03T09:48:20.689Z,375
2016-12-03T09:49:16.338Z,385
2016-12-03T09:50:16.255Z,400
2016-12-03T09:51:16.717Z,420
2016-12-03T09:52:17.033Z,460
2016-12-03T09:53:17.639Z,460
2016-12-03T09:54:18.435Z,380
2016-12-03T09:55:19.486Z,400
2016-12-03T09:56:23.553Z,410
2016-12-03T09:57:15.481Z,375
2016-12-03T09:58:20.028Z,400
2016-12-03T09:59:20.947Z,430
2016-12-03T10:00:21.386Z,460
2016-12-03T10:01:18.040Z,505
2016-12-03T10:02:29.974Z,425
2016-12-03T10:03:20.196Z,440
2016-12-03T10:04:15.748Z,480
2016-12-03T10:05:15.694Z,490
2016-12-03T10:06:18.287Z,515
2016-12-03T10:07:15.889Z,535
2016-12-03T10:08:27.729Z,435
2016-12-03T10:09:19.584Z,360
2016-12-03T10:10:19.587Z,420
2016-12-03T10:11:18.903Z,495
2016-12-03T10:12:17.342Z,545
2016-12-03T10:13:17.541Z,530
2016-12-03T10:14:17.198Z,600
2016-12-03T10:15:18.539Z,565
2016-12-03T10:16:17.706Z,515
2016-12-03T10:17:18.774Z,400
2016-12-03T10:18:23.104Z,425
2016-12-03T10:23:34.506Z,545
2016-12-03T10:23:52.804Z,515
2016-12-03T10:24:55.100Z,445
2016-12-03T10:25:53.394Z,440
2016-12-03T10:26:52.409Z,485
2016-12-03T10:27:52.993Z,475
2016-12-03T10:28:52.306Z,465
2016-12-03T10:29:50.440Z,530
2016-12-03T10:30:52.450Z,580
2016-12-03T10:31:52.366Z,540
2016-12-03T10:32:56.872Z,540
2016-12-03T10:33:52.214Z,540
2016-12-03T10:34:52.990Z,660
2016-12-03T10:35:52.048Z,600
2016-12-03T10:36:52.764Z,470
2016-12-03T10:37:52.002Z,505
2016-12-03T10:38:53.044Z,520
2016-12-03T10:39:53.377Z,435
2016-12-03T10:40:52.166Z,420
2016-12-03T10:41:50.592Z,475
2016-12-03T10:42:52.922Z,480
2016-12-03T10:43:51.870Z,460
2016-12-03T10:44:55.029Z,475
2016-12-03T10:45:56.727Z,515
2016-12-03T10:46:53.378Z,625
2016-12-03T10:47:51.035Z,755
2016-12-03T10:48:50.955Z,740
2016-12-03T10:49:51.374Z,650
2016-12-03T10:50:52.330Z,575
2016-12-03T10:51:54.848Z,705
2016-12-03T10:52:53.570Z,710
2016-12-03T10:53:54.823Z,545
2016-12-03T10:54:51.293Z,590
2016-12-03T10:55:51.144Z,580
2016-12-03T10:56:52.501Z,535
2016-12-03T10:57:50.954Z,475
2016-12-03T10:58:51.291Z,380
2016-12-03T11:00:02.241Z,330
2016-12-03T11:01:03.089Z,350
2016-12-03T11:02:00.679Z,330
2016-12-03T11:03:02.697Z,315
2016-12-03T11:03:51.997Z,310
2016-12-03T11:04:48.199Z,340
2016-12-03T11:05:48.201Z,365
2016-12-03T11:06:48.904Z,370
2016-12-03T11:07:48.487Z,385
2016-12-03T11:08:48.651Z,420
2016-12-03T11:09:48.515Z,465
2016-12-03T11:10:47.864Z,500
2016-12-03T11:11:48.420Z,495
2016-12-03T11:12:48.258Z,490
2016-12-03T11:13:48.701Z,540
2016-12-03T11:14:49.312Z,525
2016-12-03T11:15:47.418Z,450
2016-12-03T11:16:47.933Z,380
2016-12-03T11:17:48.268Z,345
2016-12-03T11:18:48.409Z,400
2016-12-03T11:19:47.983Z,440
2016-12-03T11:20:48.410Z,490
2016-12-03T11:21:48.521Z,560
2016-12-03T11:22:48.321Z,505
2016-12-03T11:23:48.988Z,465
2016-12-03T11:24:48.606Z,415
2016-12-03T11:25:49.127Z,425
2016-12-03T11:26:48.094Z,405
2016-12-03T11:27:48.624Z,405
2016-12-03T11:28:48.783Z,430
2016-12-03T11:29:48.278Z,490
2016-12-03T11:30:48.797Z,470
2016-12-03T11:31:47.943Z,430
2016-12-03T11:32:48.770Z,445
2016-12-03T11:33:48.284Z,505
2016-12-03T11:34:48.405Z,515
2016-12-03T11:35:48.518Z,515
2016-12-03T11:36:49.526Z,495
2016-12-03T11:37:48.565Z,535
2016-12-03T11:38:48.389Z,575
2016-12-03T11:39:48.806Z,595
2016-12-03T11:40:48.619Z,615
2016-12-03T11:41:49.158Z,615
2016-12-03T11:42:49.353Z,570
2016-12-03T11:43:49.112Z,505
2016-12-03T11:44:49.176Z,495
2016-12-03T11:45:53.249Z,480
2016-12-03T11:46:49.724Z,505
2016-12-03T11:47:48.968Z,530
2016-12-03T11:48:49.431Z,530
2016-12-03T11:49:48.910Z,530
2016-12-03T11:50:48.370Z,500
2016-12-03T11:51:48.997Z,500
2016-12-03T11:52:49.169Z,525
2016-12-03T11:53:49.488Z,485
2016-12-03T11:54:49.290Z,435
2016-12-03T11:55:49.932Z,395
2016-12-03T11:56:49.319Z,435
2016-12-03T11:57:49.728Z,400
2016-12-03T11:58:51.899Z,465
2016-12-03T11:59:49.737Z,460
2016-12-03T12:00:52.027Z,540
2016-12-03T12:01:50.449Z,570
2016-12-03T12:02:49.523Z,460
2016-12-03T12:03:48.392Z,380
2016-12-03T12:04:48.523Z,405
2016-12-03T12:05:50.032Z,390
2016-12-03T12:06:49.018Z,450
2016-12-03T12:07:49.804Z,490
2016-12-03T12:08:49.554Z,500
2016-12-03T12:09:49.031Z,480
2016-12-03T12:10:48.738Z,445
2016-12-03T12:11:50.146Z,415
2016-12-03T12:12:49.385Z,375
2016-12-03T12:13:49.782Z,355
2016-12-03T12:14:49.190Z,330
2016-12-03T12:15:49.196Z,295
2016-12-03T12:16:49.275Z,300
2016-12-03T12:17:48.816Z,335
2016-12-03T12:18:49.866Z,330
2016-12-03T12:19:49.574Z,345
2016-12-03T12:20:48.957Z,370
2016-12-03T12:21:48.576Z,395
2016-12-03T12:22:47.972Z,440
2016-12-03T12:23:48.642Z,495
2016-12-03T12:24:49.046Z,555
2016-12-03T12:25:48.565Z,575
2016-12-03T12:26:47.684Z,590
2016-12-03T12:27:48.034Z,615
2016-12-03T12:28:48.315Z,650
2016-12-03T12:29:48.855Z,660
2016-12-03T12:30:49.481Z,665
2016-12-03T12:31:49.772Z,610
2016-12-03T12:32:49.007Z,565
2016-12-03T12:33:49.384Z,560
2016-12-03T12:34:49.042Z,610
2016-12-03T12:35:48.796Z,585
2016-12-03T12:36:49.093Z,565
2016-12-03T12:37:48.695Z,525
2016-12-03T12:38:49.089Z,475
2016-12-03T12:39:49.407Z,450
2016-12-03T12:40:49.595Z,490
2016-12-03T12:41:48.219Z,560
2016-12-03T12:42:49.736Z,620
2016-12-03T12:43:48.663Z,575
2016-12-03T12:44:49.065Z,590
2016-12-03T12:45:48.123Z,645
2016-12-03T12:46:48.398Z,575
2016-12-03T12:47:49.173Z,530
2016-12-03T12:48:49.166Z,495
2016-12-03T12:49:50.869Z,560
2016-12-03T12:50:50.080Z,510
2016-12-03T12:51:48.700Z,480
2016-12-03T12:52:49.760Z,490
2016-12-03T12:53:49.322Z,510
2016-12-03T12:54:49.059Z,485
2016-12-03T12:55:50.679Z,470
2016-12-03T12:56:51.212Z,465
2016-12-03T12:57:50.406Z,425
2016-12-03T12:58:50.110Z,450
2016-12-03T12:59:50.091Z,485
2016-12-03T13:00:50.909Z,505
2016-12-03T13:01:50.454Z,480
2016-12-03T13:02:50.535Z,455
2016-12-03T13:03:50.440Z,440
2016-12-03T13:04:50.005Z,430
2016-12-03T13:05:49.933Z,395
2016-12-03T13:06:49.931Z,350
2016-12-03T13:07:49.582Z,370
2016-12-03T13:08:50.449Z,435
2016-12-03T13:09:50.548Z,390
2016-12-03T13:10:49.491Z,315
2016-12-03T13:11:49.417Z,290
2016-12-03T13:12:48.454Z,270
2016-12-03T13:13:49.102Z,275
2016-12-03T13:14:49.144Z,270
2016-12-03T13:15:48.635Z,270
2016-12-03T13:16:49.408Z,275
2016-12-03T13:17:49.581Z,270
2016-12-03T13:18:48.686Z,265
2016-12-03T13:19:48.723Z,260
2016-12-03T13:20:48.631Z,255
2016-12-03T13:21:49.637Z,235
2016-12-03T13:22:48.877Z,215
2016-12-03T13:23:49.978Z,225
2016-12-03T13:24:49.111Z,225
2016-12-03T13:25:49.863Z,245
2016-12-03T13:26:49.647Z,265
2016-12-03T13:27:49.745Z,275
2016-12-03T13:28:50.205Z,275
2016-12-03T13:29:49.250Z,265
2016-12-03T13:30:49.746Z,290
2016-12-03T13:31:48.740Z,290
2016-12-03T13:32:49.717Z,270
2016-12-03T13:33:50.141Z,270
2016-12-03T13:34:49.318Z,280
2016-12-03T13:35:49.365Z,275
2016-12-03T13:36:49.684Z,255
2016-12-03T13:37:51.436Z,240
2016-12-03T13:38:50.336Z,230
2016-12-03T13:39:49.163Z,225
2016-12-03T13:40:49.686Z,225
2016-12-03T13:41:49.791Z,220
2016-12-03T13:42:49.567Z,200
2016-12-03T13:43:50.687Z,185
2016-12-03T13:44:49.620Z,185
2016-12-03T13:45:49.812Z,190
2016-12-03T13:46:50.034Z,195
2016-12-03T13:47:48.681Z,205
2016-12-03T13:48:49.134Z,200
2016-12-03T13:49:49.181Z,195
2016-12-03T13:50:50.346Z,170
2016-12-03T13:51:48.850Z,155
2016-12-03T13:52:49.222Z,165
2016-12-03T13:53:49.221Z,175
2016-12-03T13:54:49.302Z,175
2016-12-03T13:55:49.816Z,170
2016-12-03T13:56:49.795Z,165
2016-12-03T13:57:49.591Z,160
2016-12-03T13:58:50.428Z,170
2016-12-03T13:59:50.638Z,165
2016-12-03T14:00:52.438Z,170
2016-12-03T14:01:53.124Z,180
2016-12-03T14:02:49.402Z,165
2016-12-03T14:03:49.756Z,150
2016-12-03T14:04:49.004Z,135
2016-12-03T14:05:49.576Z,120
2016-12-03T14:06:48.966Z,125
2016-12-03T14:07:49.404Z,135
2016-12-03T14:08:49.228Z,140
2016-12-03T14:09:49.156Z,145
2016-12-03T14:10:49.647Z,140
2016-12-03T14:11:49.315Z,115
2016-12-03T14:12:49.522Z,125
2016-12-03T14:13:49.143Z,145
2016-12-03T14:14:49.724Z,140
2016-12-03T14:15:49.877Z,140
2016-12-03T14:16:49.610Z,130
2016-12-03T14:17:50.006Z,130
2016-12-03T14:18:49.777Z,130
2016-12-03T14:19:49.817Z,125
2016-12-03T14:20:50.239Z,125
2016-12-03T14:21:50.161Z,115
2016-12-03T14:22:49.179Z,115
2016-12-03T14:23:49.272Z,110
2016-12-03T14:24:48.670Z,105
2016-12-03T14:25:48.937Z,110
2016-12-03T14:26:49.309Z,100
2016-12-03T14:27:49.688Z,105
2016-12-03T14:28:49.624Z,110
2016-12-03T14:29:49.641Z,100
2016-12-03T14:30:48.737Z,95
2016-12-03T14:31:49.087Z,90
2016-12-03T14:32:49.927Z,90
2016-12-03T14:33:50.392Z,95
2016-12-03T14:34:50.927Z,100
2016-12-03T14:35:49.844Z,90
2016-12-03T14:36:49.875Z,90
2016-12-03T14:37:49.646Z,85
2016-12-03T14:38:48.987Z,85
2016-12-03T14:39:49.131Z,85
2016-12-03T14:40:50.105Z,80
2016-12-03T14:41:51.290Z,80
2016-12-03T14:42:49.384Z,75
2016-12-03T14:43:49.616Z,75
2016-12-03T14:44:49.373Z,65
2016-12-03T14:45:49.278Z,65
2016-12-03T14:46:49.994Z,65
2016-12-03T14:47:48.469Z,65
2016-12-03T14:48:48.781Z,65
2016-12-03T14:49:48.929Z,60
2016-12-03T14:50:49.388Z,60
2016-12-03T14:51:49.494Z,60
2016-12-03T14:52:49.283Z,60
2016-12-03T14:53:49.130Z,55
2016-12-03T14:54:49.432Z,50
2016-12-03T14:55:49.485Z,50
2016-12-03T14:56:50.026Z,45
2016-12-03T14:57:49.230Z,45
2016-12-03T14:58:48.484Z,45
2016-12-03T14:59:49.360Z,40